createdAt,value
2023-05-02T00:00:37.318Z,1.20
2023-05-02T00:05:41.082Z,1.00
2023-05-02T00:10:43.639Z,1.42
2023-05-02T00:15:46.654Z,1.00
2023-05-02T00:20:50.967Z,0.98
2023-05-02T00:25:53.751Z,1.05
2023-05-02T00:30:56.613Z,1.20
2023-05-02T00:35:59.381Z,1.13
2023-05-02T00:41:02.151Z,0.90
2023-05-02T00:46:05.144Z,1.10
2023-05-02T00:51:09.186Z,0.90
2023-05-02T00:56:12.222Z,0.98
2023-05-02T01:01:27.009Z,1.10
2023-05-02T01:06:42.277Z,1.00
2023-05-02T01:12:05.712Z,1.15
2023-05-02T01:17:15.382Z,1.20
2023-05-02T01:22:20.245Z,1.10
2023-05-02T01:27:41.992Z,1.20
2023-05-02T01:32:47.605Z,1.25
2023-05-02T01:37:53.011Z,1.27
2023-05-02T01:42:58.682Z,1.50
2023-05-02T01:48:02.404Z,1.40
2023-05-02T01:53:11.788Z,1.42
2023-05-02T01:58:17.193Z,2.33
2023-05-02T02:03:22.132Z,2.08
2023-05-02T02:08:25.778Z,1.90
2023-05-02T02:13:34.981Z,2.20
2023-05-02T02:18:39.656Z,2.85
2023-05-02T02:23:45.871Z,2.03
2023-05-02T02:28:48.992Z,2.30
2023-05-02T02:33:52.084Z,1.95
2023-05-02T02:39:16.680Z,1.58
2023-05-02T02:44:25.059Z,2.10
2023-05-02T02:49:39.253Z,2.00
2023-05-02T02:54:47.215Z,1.70
2023-05-02T03:00:00.408Z,2.00
2023-05-02T03:05:05.938Z,1.63
2023-05-02T03:10:09.351Z,1.75
2023-05-02T03:15:16.668Z,1.60
2023-05-02T03:20:20.221Z,1.55
2023-05-02T03:25:24.192Z,2.00
2023-05-02T03:30:27.212Z,1.65
2023-05-02T03:35:30.428Z,1.40
2023-05-02T03:40:33.332Z,1.20
2023-05-02T03:45:36.201Z,1.30
2023-05-02T03:50:39.257Z,1.48
2023-05-02T03:55:46.052Z,1.60
2023-05-02T04:00:56.695Z,1.33
2023-05-02T04:06:01.646Z,1.70
2023-05-02T04:11:04.922Z,1.38
2023-05-02T04:16:09.261Z,1.30
2023-05-02T04:21:13.800Z,1.60
2023-05-02T04:26:17.680Z,1.30
2023-05-02T04:31:28.093Z,1.23
2023-05-02T04:36:32.371Z,1.40
2023-05-02T04:41:35.135Z,1.60
2023-05-02T04:46:41.722Z,1.38
2023-05-02T04:51:45.452Z,1.40
2023-05-02T04:56:49.598Z,1.48
2023-05-02T05:06:56.121Z,1.67
2023-05-02T05:12:02.210Z,2.00
2023-05-02T05:17:07.954Z,1.95
2023-05-02T05:22:11.721Z,1.92
2023-05-02T05:27:15.245Z,1.88
2023-05-02T05:32:21.018Z,1.73
2023-05-02T05:37:23.841Z,1.60
2023-05-02T05:42:27.394Z,1.50
2023-05-02T05:47:35.176Z,1.80
2023-05-02T05:52:38.342Z,1.80
2023-05-02T05:57:41.488Z,2.00
2023-05-02T06:02:45.802Z,2.28
2023-05-02T06:07:57.969Z,1.73
2023-05-02T06:13:00.938Z,2.00
2023-05-02T06:18:09.020Z,1.55
2023-05-02T06:23:11.880Z,1.60
2023-05-02T06:33:17.395Z,1.63
2023-05-02T06:38:20.898Z,1.30
2023-05-02T06:43:24.623Z,1.83
2023-05-02T06:48:27.314Z,1.67
2023-05-02T06:53:32.427Z,1.60
2023-05-02T06:58:36.099Z,1.40
2023-05-02T07:03:38.951Z,1.17
2023-05-02T07:08:41.740Z,1.42
2023-05-02T07:13:44.655Z,0.90
2023-05-02T07:18:47.514Z,1.42
2023-05-02T07:23:50.248Z,1.50
2023-05-02T07:28:52.929Z,1.08
2023-05-02T07:33:55.679Z,1.30
2023-05-02T07:38:58.505Z,0.95
2023-05-02T07:49:11.264Z,1.23
2023-05-02T07:54:19.988Z,1.73
2023-05-02T07:59:23.217Z,1.58
2023-05-02T08:09:38.894Z,1.33
2023-05-02T08:14:46.328Z,1.10
2023-05-02T08:24:51.768Z,1.58
2023-05-02T08:29:54.603Z,1.02
2023-05-02T08:40:01.473Z,1.77
2023-05-02T08:45:09.113Z,1.08
2023-05-02T08:50:12.593Z,1.23
2023-05-02T08:55:16.084Z,2.00
2023-05-02T09:00:19.605Z,1.90
2023-05-02T09:05:25.378Z,1.92
2023-05-02T09:10:29.560Z,1.60
2023-05-02T09:15:32.543Z,1.13
2023-05-02T09:25:43.407Z,1.48
2023-05-02T09:30:46.428Z,1.48
2023-05-02T09:40:57.231Z,1.30
2023-05-02T09:46:07.583Z,1.20
2023-05-02T09:51:18.623Z,1.17
2023-05-02T09:56:22.558Z,2.08
2023-05-02T10:01:27.118Z,1.63
2023-05-02T10:06:31.054Z,1.90
2023-05-02T10:11:34.969Z,2.10
2023-05-02T10:16:47.804Z,2.30
2023-05-02T10:21:51.904Z,2.10
2023-05-02T10:26:55.982Z,1.75
2023-05-02T10:32:01.336Z,1.88
2023-05-02T10:37:04.111Z,2.05
2023-05-02T10:42:08.085Z,1.65
2023-05-02T10:47:25.057Z,2.22
2023-05-02T10:52:29.540Z,2.28
2023-05-02T10:57:32.228Z,2.00
2023-05-02T11:02:49.180Z,2.42
2023-05-02T11:08:22.990Z,2.08
2023-05-02T11:13:52.059Z,1.88
2023-05-02T11:19:01.605Z,2.20
2023-05-02T11:24:44.947Z,2.08
2023-05-02T11:30:14.052Z,1.40
2023-05-02T11:35:24.893Z,1.58
2023-05-02T11:40:28.783Z,1.80
2023-05-02T11:45:36.744Z,1.63
2023-05-02T11:50:49.584Z,2.85
2023-05-02T11:55:58.500Z,2.63
2023-05-02T12:01:15.210Z,2.70
2023-05-02T12:06:20.488Z,3.05
2023-05-02T12:11:24.521Z,3.28
2023-05-02T12:16:31.602Z,2.95
2023-05-02T12:21:37.210Z,3.45
2023-05-02T12:31:54.077Z,3.97
2023-05-02T12:36:57.525Z,3.13
2023-05-02T12:42:00.386Z,2.65
2023-05-02T12:47:03.531Z,2.78
2023-05-02T12:52:06.457Z,4.15
2023-05-02T12:57:09.626Z,4.30
2023-05-02T13:02:12.711Z,3.67
2023-05-02T13:07:15.726Z,3.50
2023-05-02T13:12:18.930Z,3.83
2023-05-02T13:17:23.467Z,3.85
2023-05-02T13:22:27.186Z,3.47
2023-05-02T13:27:29.925Z,3.60
2023-05-02T13:32:32.672Z,3.33
2023-05-02T13:37:39.198Z,3.65
2023-05-02T13:42:43.763Z,3.42
2023-05-02T13:47:47.009Z,3.28
2023-05-02T13:52:50.098Z,3.42
2023-05-02T13:57:53.634Z,3.60
2023-05-02T14:02:56.887Z,2.95
2023-05-02T14:07:59.890Z,3.75
2023-05-02T14:13:02.803Z,2.90
2023-05-02T14:18:05.585Z,3.25
2023-05-02T14:23:12.166Z,2.80
2023-05-02T14:28:17.822Z,2.90
2023-05-02T14:33:20.381Z,2.42
2023-05-02T14:38:23.096Z,2.70
2023-05-02T14:43:27.780Z,2.70
2023-05-02T14:48:31.386Z,3.00
2023-05-02T14:53:35.353Z,3.10
2023-05-02T14:58:38.983Z,2.45
2023-05-02T15:04:03.594Z,2.80
2023-05-02T15:09:05.288Z,2.50
2023-05-02T15:14:08.063Z,3.10
2023-05-02T15:19:11.954Z,3.38
2023-05-02T15:29:19.513Z,2.90
2023-05-02T15:34:23.648Z,3.00
2023-05-02T15:39:28.153Z,2.63
2023-05-02T15:44:31.025Z,2.80
2023-05-02T15:49:37.283Z,3.50
2023-05-02T15:54:44.967Z,3.08
2023-05-02T15:59:54.181Z,2.55
2023-05-02T16:04:57.478Z,2.88
2023-05-02T16:10:01.440Z,3.08
2023-05-02T16:15:09.814Z,3.28
2023-05-02T16:20:13.144Z,3.63
2023-05-02T16:25:20.904Z,2.80
2023-05-02T16:30:23.617Z,3.00
2023-05-02T16:35:26.936Z,3.72
2023-05-02T16:40:31.538Z,2.88
2023-05-02T16:45:38.585Z,3.03
2023-05-02T16:50:41.559Z,3.15
2023-05-02T16:55:44.411Z,4.25
2023-05-02T17:00:48.359Z,3.10
2023-05-02T17:05:51.297Z,3.42
2023-05-02T17:10:58.460Z,3.47
2023-05-02T17:16:01.581Z,3.20
2023-05-02T17:21:04.562Z,3.70
2023-05-02T17:26:15.156Z,3.03
2023-05-02T17:31:18.828Z,3.10
2023-05-02T17:36:21.839Z,3.42
2023-05-02T17:41:24.979Z,3.22
2023-05-02T17:46:27.921Z,2.95
2023-05-02T17:51:30.738Z,3.35
2023-05-02T17:56:35.376Z,3.83
2023-05-02T18:06:41.148Z,4.07
2023-05-02T18:11:44.236Z,3.30
2023-05-02T18:16:49.927Z,4.00
2023-05-02T18:21:53.364Z,3.47
2023-05-02T18:26:57.859Z,3.55
2023-05-02T18:32:00.777Z,3.10
2023-05-02T18:37:04.491Z,3.25
2023-05-02T18:42:08.458Z,3.13
2023-05-02T18:47:11.317Z,3.10
2023-05-02T18:52:14.405Z,2.80
2023-05-02T18:57:17.191Z,3.33
2023-05-02T19:02:19.843Z,2.80
2023-05-02T19:07:22.762Z,2.60
2023-05-02T19:12:25.607Z,3.40
2023-05-02T19:17:28.382Z,2.47
2023-05-02T19:22:32.526Z,2.60
2023-05-02T19:27:35.674Z,3.40
2023-05-02T19:32:38.560Z,3.00
2023-05-02T19:37:41.712Z,2.90
2023-05-02T19:42:44.611Z,2.22
2023-05-02T19:47:47.835Z,3.10
2023-05-02T19:52:51.100Z,2.75
2023-05-02T19:57:53.980Z,2.75
2023-05-02T20:02:57.440Z,2.42
2023-05-02T20:08:00.347Z,2.60
2023-05-02T20:13:03.186Z,2.30
2023-05-02T20:18:06.080Z,2.00
2023-05-02T20:23:08.920Z,2.58
2023-05-02T20:28:11.809Z,1.90
2023-05-02T20:33:16.760Z,2.10
2023-05-02T20:38:20.781Z,2.30
2023-05-02T20:43:23.596Z,2.28
2023-05-02T20:48:26.384Z,3.10
2023-05-02T20:53:28.831Z,2.13
2023-05-02T20:58:31.911Z,2.67
2023-05-02T21:03:36.954Z,2.15
2023-05-02T21:08:39.607Z,2.10
2023-05-02T21:13:43.363Z,1.80
2023-05-02T21:18:47.295Z,1.85
2023-05-02T21:23:50.115Z,1.75
2023-05-02T21:28:53.208Z,1.50
2023-05-02T21:33:55.996Z,1.63
2023-05-02T21:38:58.657Z,1.63
2023-05-02T21:44:01.370Z,1.48
2023-05-02T21:49:04.287Z,1.42
2023-05-02T21:54:07.758Z,1.42
2023-05-02T21:59:10.672Z,1.20
2023-05-02T22:04:13.424Z,1.40
2023-05-02T22:09:16.015Z,1.20
2023-05-02T22:14:18.761Z,1.10
2023-05-02T22:19:21.845Z,1.40
2023-05-02T22:24:24.747Z,1.15
2023-05-02T22:29:27.544Z,1.10
2023-05-02T22:34:30.271Z,1.00
2023-05-02T22:39:33.217Z,0.82
2023-05-02T22:44:50.677Z,0.88
2023-05-02T22:49:59.952Z,1.10
2023-05-02T22:55:02.859Z,1.05
2023-05-02T23:00:07.642Z,1.00
2023-05-02T23:05:10.472Z,1.17
2023-05-02T23:10:13.255Z,1.17
2023-05-02T23:15:15.947Z,0.90
2023-05-02T23:20:20.631Z,0.90
2023-05-02T23:25:24.537Z,0.70
2023-05-02T23:30:27.286Z,0.63
2023-05-02T23:35:32.481Z,0.70
2023-05-02T23:40:35.406Z,2.00
2023-05-02T23:45:38.058Z,1.63
2023-05-02T23:50:40.611Z,2.00
2023-05-02T23:55:43.455Z,1.10
